createdAt,value
2019-04-28T00:01:51.305Z,7.70
2019-04-28T00:04:21.465Z,7.70
2019-04-28T00:06:51.539Z,7.60
2019-04-28T00:09:21.363Z,7.60
2019-04-28T00:11:51.724Z,7.60
2019-04-28T00:14:21.921Z,7.50
2019-04-28T00:16:51.205Z,7.50
2019-04-28T00:19:21.045Z,7.50
2019-04-28T00:21:53.898Z,7.50
2019-04-28T00:24:27.790Z,7.40
2019-04-28T00:27:02.667Z,7.30
2019-04-28T00:29:40.357Z,7.30
2019-04-28T00:32:03.108Z,7.40
2019-04-28T00:34:32.203Z,7.30
2019-04-28T00:37:03.091Z,7.30
2019-04-28T00:39:32.378Z,7.30
2019-04-28T00:42:03.363Z,7.30
2019-04-28T00:44:32.786Z,7.20
2019-04-28T00:47:05.110Z,7.20
2019-04-28T00:49:48.886Z,7.10
2019-04-28T00:52:18.688Z,7.20
2019-04-28T00:54:47.594Z,7.10
2019-04-28T00:57:16.496Z,7.00
2019-04-28T00:59:54.255Z,6.80
2019-04-28T01:02:16.910Z,6.90
2019-04-28T01:04:45.481Z,6.90
2019-04-28T01:07:14.035Z,7.00
2019-04-28T01:09:42.622Z,7.10
2019-04-28T01:12:11.641Z,7.10
2019-04-28T01:14:43.376Z,7.10
2019-04-28T01:17:13.004Z,7.10
2019-04-28T01:19:43.572Z,7.20
2019-04-28T01:22:12.299Z,7.30
2019-04-28T01:24:41.848Z,7.30
2019-04-28T01:27:20.289Z,7.40
2019-04-28T01:29:49.887Z,7.30
2019-04-28T01:32:36.198Z,7.30
2019-04-28T01:35:06.626Z,7.20
2019-04-28T01:37:35.694Z,7.10
2019-04-28T01:40:07.063Z,7.20
2019-04-28T01:42:36.095Z,7.10
2019-04-28T01:45:07.897Z,7.10
2019-04-28T01:47:37.104Z,7.20
2019-04-28T01:50:06.394Z,7.40
2019-04-28T01:52:35.675Z,7.40
2019-04-28T01:55:06.233Z,7.40
2019-04-28T01:57:35.624Z,7.50
2019-04-28T02:00:20.057Z,7.50
2019-04-28T02:02:40.640Z,7.50
2019-04-28T02:05:11.472Z,7.50
2019-04-28T02:07:40.951Z,7.60
2019-04-28T02:10:11.646Z,7.50
2019-04-28T02:12:40.737Z,7.40
2019-04-28T02:15:10.446Z,7.50
2019-04-28T02:17:40.218Z,7.50
2019-04-28T02:20:10.496Z,7.50
2019-04-28T02:22:41.177Z,7.50
2019-04-28T02:25:11.220Z,7.50
2019-04-28T02:27:40.308Z,7.50
2019-04-28T02:30:11.367Z,7.40
2019-04-28T02:32:41.332Z,7.40
2019-04-28T02:35:10.996Z,7.40
2019-04-28T02:37:40.801Z,7.40
2019-04-28T02:40:10.586Z,7.40
2019-04-28T02:42:40.983Z,7.30
2019-04-28T02:45:11.626Z,7.30
2019-04-28T02:47:42.070Z,7.40
2019-04-28T02:50:11.957Z,7.50
2019-04-28T02:52:55.730Z,7.40
2019-04-28T02:55:25.599Z,7.40
2019-04-28T02:57:54.929Z,7.40
2019-04-28T03:00:25.242Z,7.40
2019-04-28T03:02:55.254Z,7.50
2019-04-28T03:05:24.575Z,7.60
2019-04-28T03:07:54.200Z,7.50
2019-04-28T03:10:24.366Z,7.50
2019-04-28T03:12:56.253Z,7.60
2019-04-28T03:15:27.197Z,7.60
2019-04-28T03:17:58.341Z,7.60
2019-04-28T03:20:27.470Z,7.50
2019-04-28T03:22:57.455Z,7.40
2019-04-28T03:25:35.706Z,7.30
2019-04-28T03:28:11.794Z,7.40
2019-04-28T03:30:53.285Z,7.40
2019-04-28T03:33:25.677Z,7.40
2019-04-28T03:35:54.378Z,7.40
2019-04-28T03:38:24.691Z,7.30
2019-04-28T03:40:57.874Z,7.30
2019-04-28T03:43:30.643Z,7.40
2019-04-28T03:46:03.595Z,7.40
2019-04-28T03:48:33.706Z,7.40
2019-04-28T03:51:03.526Z,7.40
2019-04-28T03:53:32.972Z,7.40
2019-04-28T03:56:02.417Z,7.40
2019-04-28T03:58:32.069Z,7.40
2019-04-28T04:01:03.205Z,7.40
2019-04-28T04:03:31.807Z,7.40
2019-04-28T04:06:01.345Z,7.30
2019-04-28T04:08:31.158Z,7.30
2019-04-28T04:11:04.895Z,7.20
2019-04-28T04:13:41.739Z,7.20
2019-04-28T04:16:20.537Z,7.20
2019-04-28T04:18:53.748Z,7.30
2019-04-28T04:21:22.000Z,7.30
2019-04-28T04:23:51.895Z,7.30
2019-04-28T04:26:25.139Z,7.30
2019-04-28T04:28:56.329Z,7.40
2019-04-28T04:31:27.630Z,7.40
2019-04-28T04:34:00.697Z,7.40
2019-04-28T04:36:31.193Z,7.50
2019-04-28T04:39:02.780Z,7.50
2019-04-28T04:41:31.880Z,7.50
2019-04-28T04:44:01.371Z,7.60
2019-04-28T04:46:31.404Z,7.70
2019-04-28T04:49:01.015Z,7.80
2019-04-28T04:51:30.827Z,7.90
2019-04-28T04:54:01.536Z,7.90
2019-04-28T04:56:32.187Z,7.80
2019-04-28T04:59:02.777Z,7.70
2019-04-28T05:01:40.740Z,7.80
2019-04-28T05:04:27.140Z,7.60
2019-04-28T05:06:59.690Z,7.60
2019-04-28T05:09:31.049Z,7.60
2019-04-28T05:12:00.545Z,7.60
2019-04-28T05:14:30.396Z,7.40
2019-04-28T05:17:00.816Z,7.50
2019-04-28T05:19:31.189Z,7.50
2019-04-28T05:22:00.355Z,7.60
2019-04-28T05:24:31.151Z,7.70
2019-04-28T05:27:00.328Z,7.70
2019-04-28T05:29:30.625Z,7.60
2019-04-28T05:32:04.168Z,7.60
2019-04-28T05:34:33.455Z,7.60
2019-04-28T05:37:02.902Z,7.60
2019-04-28T05:39:33.660Z,7.50
2019-04-28T05:42:02.895Z,7.60
2019-04-28T05:44:37.561Z,7.60
2019-04-28T05:47:06.060Z,7.60
2019-04-28T05:49:49.812Z,7.70
2019-04-28T05:52:36.683Z,7.70
2019-04-28T05:55:17.511Z,7.70
2019-04-28T05:57:59.848Z,7.70
2019-04-28T06:00:35.453Z,7.70
2019-04-28T06:03:09.725Z,7.60
2019-04-28T06:05:39.499Z,7.70
2019-04-28T06:08:30.354Z,7.70
2019-04-28T06:11:04.543Z,7.80
2019-04-28T06:13:37.953Z,7.80
2019-04-28T06:16:30.234Z,7.80
2019-04-28T06:19:06.341Z,7.70
2019-04-28T06:21:37.847Z,7.70
2019-04-28T06:24:21.129Z,7.50
2019-04-28T06:26:51.610Z,7.30
2019-04-28T06:29:21.476Z,7.40
2019-04-28T06:32:06.823Z,7.40
2019-04-28T06:34:39.688Z,7.50
2019-04-28T06:37:08.637Z,7.30
2019-04-28T06:39:49.474Z,7.30
2019-04-28T06:42:37.050Z,7.20
2019-04-28T06:45:09.498Z,7.30
2019-04-28T06:47:39.091Z,7.50
2019-04-28T06:50:14.321Z,7.40
2019-04-28T06:55:39.024Z,7.40
2019-04-28T06:58:08.552Z,7.50
2019-04-28T07:00:37.317Z,7.50
2019-04-28T07:03:22.610Z,7.60
2019-04-28T07:05:41.926Z,7.70
2019-04-28T07:08:13.974Z,7.90
2019-04-28T07:10:42.577Z,8.00
2019-04-28T07:13:11.134Z,7.90
2019-04-28T07:15:40.010Z,7.90
2019-04-28T07:18:08.525Z,8.00
2019-04-28T07:20:38.988Z,7.80
2019-04-28T07:23:08.814Z,7.80
2019-04-28T07:25:37.386Z,7.70
2019-04-28T07:28:07.113Z,7.60
2019-04-28T07:30:37.542Z,7.60
2019-04-28T07:33:06.726Z,7.70
2019-04-28T07:35:36.214Z,7.60
2019-04-28T07:38:13.146Z,7.60
2019-04-28T07:40:44.230Z,7.50
2019-04-28T07:43:13.162Z,7.50
2019-04-28T07:45:41.740Z,7.60
2019-04-28T07:48:10.256Z,7.60
2019-04-28T07:50:38.905Z,7.50
2019-04-28T07:53:09.201Z,7.40
2019-04-28T07:55:38.049Z,7.40
2019-04-28T07:58:06.921Z,7.40
2019-04-28T08:00:37.938Z,7.50
2019-04-28T08:03:06.907Z,7.70
2019-04-28T08:05:36.310Z,7.90
2019-04-28T08:08:06.489Z,8.10
2019-04-28T08:10:36.382Z,8.00
2019-04-28T08:13:06.226Z,8.00
2019-04-28T08:15:35.759Z,7.90
2019-04-28T08:18:05.358Z,7.80
2019-04-28T08:20:35.190Z,7.80
2019-04-28T08:23:05.138Z,7.80
2019-04-28T08:25:36.385Z,7.80
2019-04-28T08:28:05.493Z,7.70
2019-04-28T08:30:35.401Z,7.50
2019-04-28T08:33:06.406Z,7.60
2019-04-28T08:35:36.835Z,7.40
2019-04-28T08:38:06.825Z,7.40
2019-04-28T08:40:35.777Z,7.30
2019-04-28T08:43:05.596Z,7.40
2019-04-28T08:45:36.462Z,7.50
2019-04-28T08:48:05.790Z,7.50
2019-04-28T08:50:36.423Z,7.40
2019-04-28T08:53:06.473Z,7.30
2019-04-28T08:55:35.797Z,7.40
2019-04-28T08:58:06.057Z,7.40
2019-04-28T09:00:35.034Z,7.30
2019-04-28T09:03:05.257Z,7.30
2019-04-28T09:05:35.096Z,7.30
2019-04-28T09:08:05.718Z,7.40
2019-04-28T09:10:35.839Z,7.60
2019-04-28T09:13:06.245Z,7.60
2019-04-28T09:15:34.954Z,7.80
2019-04-28T09:18:04.033Z,8.20
2019-04-28T09:20:33.106Z,8.50
2019-04-28T09:23:02.171Z,8.80
2019-04-28T09:25:30.907Z,8.70
2019-04-28T09:28:00.229Z,8.80
2019-04-28T09:30:31.110Z,9.00
2019-04-28T09:33:00.023Z,9.30
2019-04-28T09:35:29.039Z,9.40
2019-04-28T09:37:59.221Z,9.60
2019-04-28T09:40:32.466Z,9.60
2019-04-28T09:43:03.846Z,9.50
2019-04-28T09:45:34.650Z,9.60
2019-04-28T09:48:04.734Z,9.50
2019-04-28T09:50:35.144Z,9.10
2019-04-28T09:53:03.922Z,8.90
2019-04-28T09:55:34.219Z,8.70
2019-04-28T09:58:03.987Z,8.70
2019-04-28T10:00:34.332Z,8.60
2019-04-28T10:03:04.813Z,8.60
2019-04-28T10:05:34.808Z,8.50
2019-04-28T10:08:04.770Z,8.50
2019-04-28T10:10:34.381Z,8.40
2019-04-28T10:13:05.561Z,8.60
2019-04-28T10:15:34.177Z,8.50
2019-04-28T10:18:04.667Z,8.50
2019-04-28T10:20:34.263Z,8.30
2019-04-28T10:23:08.374Z,8.30
2019-04-28T10:25:37.447Z,8.20
2019-04-28T10:28:06.592Z,8.10
2019-04-28T10:30:35.816Z,8.30
2019-04-28T10:33:05.207Z,8.40
2019-04-28T10:35:34.146Z,8.60
2019-04-28T10:38:04.635Z,8.60
2019-04-28T10:40:37.538Z,8.90
2019-04-28T10:43:06.250Z,9.20
2019-04-28T10:45:36.672Z,9.30
2019-04-28T10:48:06.667Z,9.20
2019-04-28T10:50:35.606Z,9.30
2019-04-28T10:53:04.887Z,9.60
2019-04-28T10:55:35.114Z,9.60
2019-04-28T10:58:04.366Z,9.50
2019-04-28T11:00:35.654Z,9.50
2019-04-28T11:03:06.016Z,9.80
2019-04-28T11:05:46.925Z,9.90
2019-04-28T11:08:30.017Z,10.00
2019-04-28T11:11:00.669Z,9.90
2019-04-28T11:13:30.030Z,9.60
2019-04-28T11:15:59.285Z,9.70
2019-04-28T11:18:29.290Z,9.80
2019-04-28T11:20:58.200Z,9.90
2019-04-28T11:23:27.030Z,10.10
2019-04-28T11:25:58.783Z,10.40
2019-04-28T11:28:37.749Z,10.70
2019-04-28T11:31:05.454Z,10.50
2019-04-28T11:33:53.741Z,11.00
2019-04-28T11:36:25.099Z,11.10
2019-04-28T11:38:54.258Z,10.90
2019-04-28T11:41:26.697Z,10.70
2019-04-28T11:43:56.615Z,10.60
2019-04-28T11:46:27.270Z,10.50
2019-04-28T11:48:56.942Z,10.40
2019-04-28T11:51:27.043Z,10.30
2019-04-28T11:54:24.170Z,10.40
2019-04-28T11:56:55.198Z,10.60
2019-04-28T11:59:32.803Z,10.70
2019-04-28T12:02:02.129Z,10.40
2019-04-28T12:04:32.007Z,10.30
2019-04-28T12:07:02.016Z,10.60
2019-04-28T12:09:34.498Z,10.60
2019-04-28T12:12:05.116Z,10.40
2019-04-28T12:14:44.125Z,10.40
2019-04-28T12:17:29.660Z,10.70
2019-04-28T12:20:22.693Z,11.00
2019-04-28T12:22:53.578Z,10.90
2019-04-28T12:25:27.202Z,10.90
2019-04-28T12:27:57.591Z,11.00
2019-04-28T12:30:28.643Z,11.30
2019-04-28T12:32:59.028Z,11.50
2019-04-28T12:35:28.938Z,11.70
2019-04-28T12:37:58.938Z,11.80
2019-04-28T12:40:30.066Z,12.10
2019-04-28T12:43:10.426Z,12.50
2019-04-28T12:45:39.025Z,12.90
2019-04-28T12:48:07.934Z,13.30
2019-04-28T12:50:41.139Z,13.10
2019-04-28T12:53:09.922Z,12.60
2019-04-28T12:55:38.597Z,12.10
2019-04-28T12:58:07.493Z,12.00
2019-04-28T13:00:44.081Z,12.00
2019-04-28T13:03:14.287Z,11.90
2019-04-28T13:05:44.582Z,11.80
2019-04-28T13:08:13.149Z,11.60
2019-04-28T13:10:41.794Z,11.50
2019-04-28T13:13:10.422Z,11.20
2019-04-28T13:15:39.006Z,10.90
2019-04-28T13:18:07.870Z,10.70
2019-04-28T13:20:36.763Z,10.70
2019-04-28T13:23:06.330Z,10.90
2019-04-28T13:25:35.618Z,11.10
2019-04-28T13:28:05.654Z,11.30
2019-04-28T13:30:35.692Z,11.10
2019-04-28T13:33:05.740Z,11.00
2019-04-28T13:35:34.998Z,11.40
2019-04-28T13:38:05.395Z,11.20
2019-04-28T13:40:36.497Z,11.40
2019-04-28T13:43:06.191Z,11.70
2019-04-28T13:45:36.249Z,11.70
2019-04-28T13:48:05.860Z,12.00
2019-04-28T13:50:39.752Z,12.10
2019-04-28T13:53:08.954Z,12.40
2019-04-28T13:55:39.340Z,12.30
2019-04-28T13:58:08.366Z,12.50
2019-04-28T14:00:38.806Z,12.80
2019-04-28T14:03:18.407Z,12.80
2019-04-28T14:05:59.078Z,13.00
2019-04-28T14:08:28.587Z,12.60
2019-04-28T14:10:58.260Z,12.80
2019-04-28T14:13:29.545Z,13.10
2019-04-28T14:15:59.604Z,13.40
2019-04-28T14:18:30.075Z,13.20
2019-04-28T14:20:59.401Z,12.90
2019-04-28T14:23:29.403Z,12.60
2019-04-28T14:26:00.314Z,12.30
2019-04-28T14:28:29.517Z,12.00
2019-04-28T14:30:58.751Z,12.00
2019-04-28T14:33:27.967Z,12.20
2019-04-28T14:35:57.455Z,11.70
2019-04-28T14:38:26.833Z,11.70
2019-04-28T14:40:56.032Z,11.80
2019-04-28T14:43:25.223Z,12.20
2019-04-28T14:45:54.913Z,12.30
2019-04-28T14:48:24.380Z,12.20
2019-04-28T14:50:54.067Z,12.30
2019-04-28T14:53:23.381Z,12.10
2019-04-28T14:55:53.655Z,12.10
2019-04-28T14:58:23.987Z,12.10
2019-04-28T15:01:04.111Z,12.20
2019-04-28T15:03:34.381Z,11.90
2019-04-28T15:06:10.313Z,11.90
2019-04-28T15:08:49.468Z,11.60
2019-04-28T15:11:20.247Z,11.80
2019-04-28T15:13:48.961Z,11.90
2019-04-28T15:16:17.485Z,12.00
2019-04-28T15:18:46.517Z,11.90
2019-04-28T15:21:15.282Z,12.10
2019-04-28T15:23:44.347Z,12.20
2019-04-28T15:26:13.292Z,12.80
2019-04-28T15:28:41.933Z,13.30
2019-04-28T15:31:10.959Z,13.60
2019-04-28T15:33:39.636Z,13.70
2019-04-28T15:36:08.766Z,14.30
2019-04-28T15:38:37.642Z,14.80
2019-04-28T15:41:20.556Z,14.10
2019-04-28T15:43:37.054Z,13.80
2019-04-28T15:46:05.773Z,13.70
2019-04-28T15:48:34.333Z,14.00
2019-04-28T15:51:03.091Z,14.00
2019-04-28T15:53:32.591Z,14.60
2019-04-28T15:56:05.582Z,14.10
2019-04-28T15:58:35.785Z,13.60
2019-04-28T16:01:04.837Z,13.90
2019-04-28T16:03:33.440Z,14.20
2019-04-28T16:06:02.057Z,13.90
2019-04-28T16:08:30.685Z,13.90
2019-04-28T16:10:59.417Z,13.90
2019-04-28T16:13:28.246Z,13.10
2019-04-28T16:15:57.308Z,13.20
2019-04-28T16:18:26.930Z,13.50
2019-04-28T16:20:57.094Z,13.50
2019-04-28T16:23:26.152Z,13.60
2019-04-28T16:25:56.267Z,13.30
2019-04-28T16:28:26.654Z,13.10
2019-04-28T16:30:56.882Z,12.80
2019-04-28T16:33:26.117Z,13.00
2019-04-28T16:35:56.201Z,13.20
2019-04-28T16:38:28.374Z,13.10
2019-04-28T16:40:57.664Z,12.70
2019-04-28T16:43:27.336Z,12.60
2019-04-28T16:45:58.712Z,12.40
2019-04-28T16:48:29.763Z,11.90
2019-04-28T16:51:01.631Z,11.80
2019-04-28T16:53:30.416Z,11.60
2019-04-28T16:56:01.827Z,11.50
2019-04-28T16:58:49.115Z,11.40
2019-04-28T17:01:30.768Z,11.40
2019-04-28T17:04:01.304Z,11.30
2019-04-28T17:06:32.981Z,11.30
2019-04-28T17:09:02.398Z,11.30
2019-04-28T17:11:32.338Z,11.20
2019-04-28T17:14:02.805Z,11.20
2019-04-28T17:16:32.538Z,11.20
2019-04-28T17:19:02.182Z,11.20
2019-04-28T17:21:32.470Z,11.00
2019-04-28T17:24:02.438Z,11.00
2019-04-28T17:26:32.163Z,11.00
2019-04-28T17:29:01.583Z,10.90
2019-04-28T17:31:30.882Z,10.80
2019-04-28T17:34:00.288Z,10.80
2019-04-28T17:36:29.574Z,10.80
2019-04-28T17:38:59.856Z,10.80
2019-04-28T17:41:30.255Z,10.70
2019-04-28T17:43:59.700Z,10.70
2019-04-28T17:46:28.794Z,10.60
2019-04-28T17:49:00.958Z,10.60
2019-04-28T17:51:31.810Z,10.60
2019-04-28T17:54:01.239Z,10.60
2019-04-28T17:56:30.504Z,10.50
2019-04-28T17:58:59.970Z,10.50
2019-04-28T18:01:35.977Z,10.50
2019-04-28T18:04:06.337Z,10.40
2019-04-28T18:06:48.591Z,10.30
2019-04-28T18:09:17.238Z,10.20
2019-04-28T18:11:45.871Z,10.10
2019-04-28T18:14:14.453Z,10.00
2019-04-28T18:16:52.448Z,9.90
2019-04-28T18:19:26.259Z,9.90
2019-04-28T18:21:57.011Z,9.80
2019-04-28T18:24:27.454Z,9.70
2019-04-28T18:26:56.867Z,9.70
2019-04-28T18:29:26.401Z,9.70
2019-04-28T18:32:07.126Z,9.60
2019-04-28T18:34:40.282Z,9.60
2019-04-28T18:37:10.484Z,9.50
2019-04-28T18:39:57.848Z,9.50
2019-04-28T18:42:28.441Z,9.50
2019-04-28T18:44:57.574Z,9.40
2019-04-28T18:47:27.023Z,9.30
2019-04-28T18:49:56.924Z,9.20
2019-04-28T18:52:32.350Z,9.20
2019-04-28T18:55:01.038Z,9.20
2019-04-28T18:57:30.072Z,9.40
2019-04-28T18:59:58.897Z,9.60
2019-04-28T19:02:29.665Z,9.50
2019-04-28T19:05:02.322Z,9.50
2019-04-28T19:07:35.775Z,9.50
2019-04-28T19:10:06.623Z,9.60
2019-04-28T19:12:55.854Z,9.60
2019-04-28T19:15:42.780Z,9.50
2019-04-28T19:18:22.917Z,9.40
2019-04-28T19:20:52.406Z,9.30
2019-04-28T19:23:22.712Z,9.20
2019-04-28T19:25:52.878Z,9.10
2019-04-28T19:28:25.301Z,8.90
2019-04-28T19:30:56.913Z,8.90
2019-04-28T19:33:25.921Z,8.90
2019-04-28T19:35:55.744Z,8.90
2019-04-28T19:38:27.523Z,8.90
2019-04-28T19:40:57.167Z,9.00
2019-04-28T19:43:26.673Z,9.00
2019-04-28T19:45:58.855Z,9.10
2019-04-28T19:48:27.575Z,9.10
2019-04-28T19:50:56.227Z,9.10
2019-04-28T19:53:24.862Z,9.30
2019-04-28T19:56:00.878Z,9.40
2019-04-28T19:58:31.286Z,9.60
2019-04-28T20:01:03.950Z,9.70
2019-04-28T20:03:32.557Z,9.70
2019-04-28T20:06:01.162Z,9.60
2019-04-28T20:08:29.853Z,9.70
2019-04-28T20:10:58.468Z,9.60
2019-04-28T20:13:27.054Z,9.60
2019-04-28T20:15:55.988Z,9.70
2019-04-28T20:18:24.689Z,9.80
2019-04-28T20:20:53.674Z,9.80
2019-04-28T20:23:22.529Z,9.60
2019-04-28T20:25:51.396Z,9.40
2019-04-28T20:28:19.954Z,9.30
2019-04-28T20:30:48.517Z,9.20
2019-04-28T20:33:17.078Z,9.10
2019-04-28T20:35:54.163Z,9.10
2019-04-28T20:38:25.144Z,9.00
2019-04-28T20:40:58.583Z,8.90
2019-04-28T20:43:28.782Z,8.80
2019-04-28T20:45:57.865Z,8.70
2019-04-28T20:48:28.596Z,8.60
2019-04-28T20:50:57.581Z,8.60
2019-04-28T20:53:27.679Z,8.60
2019-04-28T20:55:57.001Z,8.50
2019-04-28T20:58:27.286Z,8.50
2019-04-28T21:00:56.627Z,8.40
2019-04-28T21:03:25.878Z,8.40
2019-04-28T21:05:54.930Z,8.40
2019-04-28T21:08:24.539Z,8.30
2019-04-28T21:10:53.976Z,8.40
2019-04-28T21:13:24.674Z,8.40
2019-04-28T21:15:54.721Z,8.40
2019-04-28T21:18:24.095Z,8.30
2019-04-28T21:20:53.496Z,8.40
2019-04-28T21:23:23.365Z,8.30
2019-04-28T21:25:52.536Z,8.40
2019-04-28T21:28:21.938Z,8.40
2019-04-28T21:30:51.070Z,8.40
2019-04-28T21:33:19.799Z,8.30
2019-04-28T21:35:48.881Z,8.20
2019-04-28T21:38:17.435Z,8.10
2019-04-28T21:40:45.999Z,8.10
2019-04-28T21:43:23.237Z,8.10
2019-04-28T21:46:10.167Z,8.00
2019-04-28T21:48:49.409Z,8.00
2019-04-28T21:51:17.993Z,8.00
2019-04-28T21:53:46.555Z,8.00
2019-04-28T21:56:15.139Z,8.00
2019-04-28T21:58:43.689Z,7.90
2019-04-28T22:01:15.893Z,7.90
2019-04-28T22:03:44.547Z,7.80
2019-04-28T22:06:13.170Z,7.80
2019-04-28T22:08:41.750Z,7.80
2019-04-28T22:11:10.312Z,7.70
2019-04-28T22:13:38.890Z,7.70
2019-04-28T22:16:07.782Z,7.70
2019-04-28T22:18:36.361Z,7.60
2019-04-28T22:21:04.986Z,7.60
2019-04-28T22:23:47.374Z,7.60
2019-04-28T22:26:23.604Z,7.60
2019-04-28T22:28:54.360Z,7.60
2019-04-28T22:31:24.093Z,7.50
2019-04-28T22:33:53.779Z,7.50
2019-04-28T22:36:23.173Z,7.50
2019-04-28T22:38:52.950Z,7.40
2019-04-28T22:41:23.214Z,7.40
2019-04-28T22:43:52.342Z,7.50
2019-04-28T22:46:23.619Z,7.60
2019-04-28T22:48:55.480Z,7.50
2019-04-28T22:51:24.849Z,7.50
2019-04-28T22:53:54.574Z,7.40
2019-04-28T22:56:25.912Z,7.40
2019-04-28T22:59:11.154Z,7.40
2019-04-28T23:01:47.682Z,7.40
2019-04-28T23:04:21.880Z,7.30
2019-04-28T23:06:51.711Z,7.40
2019-04-28T23:09:24.226Z,7.40
2019-04-28T23:11:54.057Z,7.40
2019-04-28T23:14:24.061Z,7.40
2019-04-28T23:16:56.863Z,7.40
2019-04-28T23:19:27.489Z,7.40
2019-04-28T23:22:13.011Z,7.30
2019-04-28T23:24:41.853Z,7.20
2019-04-28T23:27:10.413Z,7.10
2019-04-28T23:29:38.992Z,7.10
2019-04-28T23:32:07.613Z,7.10
2019-04-28T23:34:36.198Z,7.00
2019-04-28T23:37:04.823Z,7.00
2019-04-28T23:39:33.536Z,7.00
2019-04-28T23:42:06.389Z,7.00
2019-04-28T23:44:34.973Z,7.00
2019-04-28T23:47:04.506Z,7.00
2019-04-28T23:49:33.217Z,7.00
2019-04-28T23:52:22.581Z,7.00
2019-04-28T23:54:53.811Z,7.10
2019-04-28T23:57:24.263Z,7.10
2019-04-28T23:59:55.149Z,7.10
